This is the latest recevied weather packets stored in our database for station/object IK1PCD-11. If no packets are shown the sender has not sent any weather packets the latest 10 day(s).
| Time | Temp. | Humidity | Pressure | Rain* | Wind** | Luminosity | Snow |
|---|---|---|---|---|---|---|---|
| 1787930588 | 23.89° C | 100% | 1018.9 hPa | - | - | - | - |
| 1787929688 | 24.44° C | 100% | 1019.3 hPa | - | - | - | - |
| 1787928788 | 25° C | 100% | 1018.9 hPa | - | - | - | - |
| 1787927888 | 25.56° C | 100% | 1018.7 hPa | - | - | - | - |
| 1787926987 | 25.56° C | 100% | 1018.6 hPa | - | - | - | - |
| 1787926087 | 26.11° C | 100% | 1018.6 hPa | - | - | - | - |
| 1787925185 | 26.11° C | 100% | 1018.5 hPa | - | - | - | - |
| 1787924285 | 26.11° C | 100% | 1018.5 hPa | - | - | - | - |
| 1787921584 | 25.56° C | 100% | 1019.4 hPa | - | - | - | - |
| 1787920683 | 25° C | 100% | 1019.7 hPa | - | - | - | - |
| 1787919783 | 26.67° C | 100% | 1019.5 hPa | - | - | - | - |
| 1787918883 | 25.56° C | 100% | 1019.7 hPa | - | - | - | - |
| 1787917983 | 26.11° C | 100% | 1019.8 hPa | - | - | - | - |
| 1787917083 | 26.67° C | 100% | 1019.6 hPa | - | - | - | - |
| 1787916183 | 25.56° C | 100% | 1020 hPa | - | - | - | - |
| 1787915283 | 25.56° C | 100% | 1020.6 hPa | - | - | - | - |
| 1787914382 | 25° C | 100% | 1021.2 hPa | - | - | - | - |
| 1787913751 | 24.44° C | 100% | 1021.9 hPa | - | - | - | - |
| 1787912851 | 23.89° C | 100% | 1021.8 hPa | - | - | - | - |
| 1787911951 | 23.33° C | 100% | 1022.1 hPa | - | - | - | - |
| 1787911050 | 23.89° C | 100% | 1021.5 hPa | - | - | - | - |
| 1787910150 | 23.33° C | 100% | 1022 hPa | - | - | - | - |
| 1787909250 | 22.78° C | 100% | 1022 hPa | - | - | - | - |
| 1787908350 | 22.22° C | 100% | 1021.8 hPa | - | - | - | - |
| 1787905391 | 21.11° C | 100% | 1021.9 hPa | - | - | - | - |
* Rain since midnight (hover to see other rain measurements)
** Current wind speed in m/s (hover to see current wind gust speed)